createdAt,value
2019-01-10T00:00:16.853Z,5.53
2019-01-10T00:02:45.652Z,7.20
2019-01-10T00:05:14.337Z,8.45
2019-01-10T00:07:43.115Z,4.58
2019-01-10T00:10:14.194Z,6.12
2019-01-10T00:12:42.954Z,6.28
2019-01-10T00:15:19.115Z,8.38
2019-01-10T00:17:49.985Z,7.40
2019-01-10T00:20:18.136Z,7.05
2019-01-10T00:22:46.905Z,5.25
2019-01-10T00:25:15.814Z,3.53
2019-01-10T00:27:44.598Z,7.62
2019-01-10T00:30:18.937Z,6.83
2019-01-10T00:32:47.615Z,6.12
2019-01-10T00:35:16.236Z,4.65
2019-01-10T00:37:45.294Z,4.40
2019-01-10T00:40:15.910Z,5.77
2019-01-10T00:42:49.664Z,4.50
2019-01-10T00:45:16.867Z,7.92
2019-01-10T00:47:46.602Z,3.93
2019-01-10T00:50:23.975Z,7.50
2019-01-10T00:52:52.854Z,6.85
2019-01-10T00:55:21.954Z,6.20
2019-01-10T00:57:50.854Z,7.22
2019-01-10T01:00:24.839Z,7.60
2019-01-10T01:02:53.663Z,5.20
2019-01-10T01:05:22.634Z,4.92
2019-01-10T01:07:51.527Z,7.17
2019-01-10T01:10:25.663Z,6.58
2019-01-10T01:12:58.646Z,4.67
2019-01-10T01:15:25.874Z,4.97
2019-01-10T01:17:54.775Z,6.92
2019-01-10T01:20:24.543Z,4.75
2019-01-10T01:22:53.374Z,3.50
2019-01-10T01:25:21.935Z,3.95
2019-01-10T01:27:50.747Z,4.30
2019-01-10T01:30:24.215Z,4.03
2019-01-10T01:32:53.216Z,6.53
2019-01-10T01:35:22.004Z,10.90
2019-01-10T01:37:50.717Z,4.13
2019-01-10T01:40:20.486Z,4.70
2019-01-10T01:42:49.314Z,5.17
2019-01-10T01:45:19.175Z,5.30
2019-01-10T01:47:48.114Z,4.12
2019-01-10T01:50:21.914Z,6.70
2019-01-10T01:52:50.588Z,5.10
2019-01-10T01:55:19.492Z,6.37
2019-01-10T01:57:48.166Z,5.22
2019-01-10T02:00:18.723Z,5.00
2019-01-10T02:02:47.282Z,4.45
2019-01-10T02:05:16.387Z,7.97
2019-01-10T02:07:45.411Z,4.37
2019-01-10T02:10:19.766Z,6.73
2019-01-10T02:12:48.602Z,7.43
2019-01-10T02:15:17.475Z,7.75
2019-01-10T02:17:49.179Z,4.40
2019-01-10T02:20:17.115Z,8.38
2019-01-10T02:22:46.098Z,3.20
2019-01-10T02:25:16.317Z,4.97
2019-01-10T02:27:45.149Z,6.92
2019-01-10T02:30:19.092Z,2.43
2019-01-10T02:32:48.019Z,5.37
2019-01-10T02:35:16.853Z,4.00
2019-01-10T02:37:45.594Z,3.27
2019-01-10T02:40:14.574Z,5.45
2019-01-10T02:42:43.475Z,5.62
2019-01-10T02:45:15.015Z,4.73
2019-01-10T02:47:44.017Z,5.25
2019-01-10T02:50:20.902Z,5.55
2019-01-10T02:52:49.776Z,3.55
2019-01-10T02:55:18.675Z,4.80
2019-01-10T02:57:47.550Z,4.65
2019-01-10T03:00:21.378Z,3.77
2019-01-10T03:02:50.258Z,6.83
2019-01-10T03:05:19.056Z,6.28
2019-01-10T03:07:47.718Z,4.10
2019-01-10T03:10:22.135Z,2.83
2019-01-10T03:12:50.934Z,4.50
2019-01-10T03:15:19.922Z,3.23
2019-01-10T03:17:48.815Z,3.40
2019-01-10T03:20:22.177Z,5.30
2019-01-10T03:22:51.006Z,3.60
2019-01-10T03:25:20.111Z,4.97
2019-01-10T03:27:48.772Z,3.20
2019-01-10T03:30:19.615Z,3.50
2019-01-10T03:32:48.530Z,3.72
2019-01-10T03:35:17.526Z,4.87
2019-01-10T03:37:46.482Z,7.85
2019-01-10T03:40:17.436Z,4.85
2019-01-10T03:42:46.242Z,3.65
2019-01-10T03:45:16.914Z,3.90
2019-01-10T03:47:45.422Z,4.42
2019-01-10T03:50:15.873Z,4.42
2019-01-10T03:52:44.554Z,4.12
2019-01-10T03:55:13.518Z,2.80
2019-01-10T03:57:42.266Z,2.93
2019-01-10T04:00:23.729Z,5.55
2019-01-10T04:02:52.394Z,5.50
2019-01-10T04:05:21.068Z,8.43
2019-01-10T04:07:50.068Z,4.33
2019-01-10T04:10:18.992Z,4.67
2019-01-10T04:12:47.955Z,4.83
2019-01-10T04:15:17.486Z,3.77
2019-01-10T04:17:46.355Z,6.10
2019-01-10T04:20:16.826Z,5.43
2019-01-10T04:22:45.755Z,4.28
2019-01-10T04:25:14.916Z,4.80
2019-01-10T04:27:43.877Z,5.23
2019-01-10T04:30:15.508Z,4.90
2019-01-10T04:32:44.314Z,5.12
2019-01-10T04:35:13.106Z,3.25
2019-01-10T04:37:42.194Z,5.72
2019-01-10T04:40:14.118Z,5.97
2019-01-10T04:42:43.082Z,4.83
2019-01-10T04:45:11.834Z,4.12
2019-01-10T04:47:40.740Z,6.65
2019-01-10T04:50:11.558Z,4.57
2019-01-10T04:52:40.454Z,4.05
2019-01-10T04:55:10.348Z,4.75
2019-01-10T04:57:39.027Z,4.80
2019-01-10T05:00:11.114Z,6.00
2019-01-10T05:02:40.023Z,3.00
2019-01-10T05:05:08.894Z,3.90
2019-01-10T05:07:37.914Z,3.90
2019-01-10T05:10:09.834Z,4.47
2019-01-10T05:12:38.630Z,3.92
2019-01-10T05:15:10.615Z,5.25
2019-01-10T05:17:39.256Z,5.67
2019-01-10T05:21:24.473Z,4.40
2019-01-10T05:23:53.462Z,3.60
2019-01-10T05:26:22.371Z,2.45
2019-01-10T05:28:51.454Z,5.53
2019-01-10T05:31:20.335Z,5.30
2019-01-10T05:33:49.014Z,4.13
2019-01-10T05:36:18.125Z,4.28
2019-01-10T05:38:46.915Z,3.77
2019-01-10T05:41:15.794Z,4.67
2019-01-10T05:43:44.575Z,8.85
2019-01-10T05:46:15.166Z,5.05
2019-01-10T05:48:46.978Z,5.22
2019-01-10T05:51:14.224Z,4.10
2019-01-10T05:53:42.902Z,3.58
2019-01-10T05:56:15.736Z,5.30
2019-01-10T05:58:42.023Z,5.97
2019-01-10T06:01:10.723Z,4.15
2019-01-10T06:03:39.496Z,4.60
2019-01-10T06:06:08.497Z,3.15
2019-01-10T06:08:37.274Z,5.30
2019-01-10T06:11:05.846Z,5.80
2019-01-10T06:13:34.514Z,5.65
2019-01-10T06:16:03.134Z,7.20
2019-01-10T06:18:31.931Z,5.42
2019-01-10T06:21:00.695Z,6.03
2019-01-10T06:23:29.506Z,5.08
2019-01-10T06:25:58.395Z,6.00
2019-01-10T06:28:27.474Z,4.25
2019-01-10T06:30:56.375Z,5.75
2019-01-10T06:33:25.254Z,3.40
2019-01-10T06:35:54.354Z,4.80
2019-01-10T06:38:23.271Z,8.63
2019-01-10T06:40:52.354Z,5.17
2019-01-10T06:43:21.155Z,5.05
2019-01-10T06:45:50.036Z,7.00
2019-01-10T06:48:18.908Z,7.37
2019-01-10T06:50:47.931Z,4.90
2019-01-10T06:53:16.812Z,6.20
2019-01-10T06:55:45.789Z,5.07
2019-01-10T06:58:34.134Z,5.67
2019-01-10T07:01:02.788Z,8.35
2019-01-10T07:03:31.488Z,5.80
2019-01-10T07:06:00.495Z,6.97
2019-01-10T07:08:29.381Z,5.33
2019-01-10T07:10:58.274Z,6.33
2019-01-10T07:13:27.174Z,6.83
2019-01-10T07:15:56.056Z,5.90
2019-01-10T07:18:24.524Z,6.17
2019-01-10T07:20:53.436Z,9.78
2019-01-10T07:23:22.208Z,9.08
2019-01-10T07:25:55.031Z,10.40
2019-01-10T07:28:24.071Z,7.33
2019-01-10T07:30:53.924Z,7.80
2019-01-10T07:33:22.594Z,7.07
2019-01-10T07:35:55.335Z,5.55
2019-01-10T07:38:24.007Z,7.23
2019-01-10T07:40:52.803Z,8.03
2019-01-10T07:43:22.615Z,5.53
2019-01-10T07:45:51.557Z,6.25
2019-01-10T07:48:20.326Z,5.78
2019-01-10T07:50:49.316Z,7.03
2019-01-10T07:53:18.028Z,6.72
2019-01-10T07:55:46.914Z,6.20
2019-01-10T07:58:15.922Z,7.10
2019-01-10T08:00:44.893Z,7.40
2019-01-10T08:03:13.846Z,7.10
2019-01-10T08:05:42.682Z,4.92
2019-01-10T08:08:11.582Z,6.97
2019-01-10T08:10:40.228Z,6.97
2019-01-10T08:13:09.254Z,4.78
2019-01-10T08:15:38.034Z,4.97
2019-01-10T08:18:06.810Z,9.10
2019-01-10T08:20:35.691Z,6.53
2019-01-10T08:23:04.512Z,6.10
2019-01-10T08:25:33.381Z,6.37
2019-01-10T08:28:02.679Z,6.33
2019-01-10T08:30:33.657Z,6.55
2019-01-10T08:33:02.297Z,5.97
2019-01-10T08:35:31.096Z,5.30
2019-01-10T08:37:59.661Z,7.40
2019-01-10T08:40:28.451Z,7.17
2019-01-10T08:42:57.263Z,4.33
2019-01-10T08:45:26.046Z,4.20
2019-01-10T08:47:54.636Z,4.50
2019-01-10T08:50:24.714Z,5.40
2019-01-10T08:55:43.117Z,4.37
2019-01-10T08:58:11.794Z,6.65
2019-01-10T09:00:40.495Z,5.40
2019-01-10T09:03:09.377Z,7.17
2019-01-10T09:05:38.288Z,5.37
2019-01-10T09:08:07.097Z,5.72
2019-01-10T09:10:36.062Z,6.55
2019-01-10T09:13:04.942Z,4.75
2019-01-10T09:15:34.599Z,7.60
2019-01-10T09:18:04.027Z,5.72
2019-01-10T09:20:32.632Z,7.20
2019-01-10T09:23:01.300Z,6.53
2019-01-10T09:25:30.311Z,4.33
2019-01-10T09:27:58.883Z,5.42
2019-01-10T09:30:27.801Z,5.97
2019-01-10T09:32:56.622Z,6.05
2019-01-10T09:35:25.351Z,8.10
2019-01-10T09:37:54.014Z,9.10
2019-01-10T09:40:23.141Z,6.90
2019-01-10T09:42:51.841Z,8.55
2019-01-10T09:45:22.042Z,6.92
2019-01-10T09:47:51.053Z,5.92
2019-01-10T09:50:21.393Z,9.20
2019-01-10T09:52:50.373Z,7.95
2019-01-10T09:55:19.024Z,11.68
2019-01-10T09:57:47.832Z,7.50
2019-01-10T10:00:21.852Z,9.87
2019-01-10T10:02:50.839Z,6.83
2019-01-10T10:05:19.739Z,6.00
2019-01-10T10:07:48.612Z,6.35
2019-01-10T10:10:19.162Z,7.58
2019-01-10T10:12:47.797Z,7.70
2019-01-10T10:15:17.767Z,6.22
2019-01-10T10:17:46.749Z,6.53
2019-01-10T10:20:20.944Z,6.33
2019-01-10T10:22:49.851Z,7.12
2019-01-10T10:25:18.732Z,6.22
2019-01-10T10:27:47.415Z,4.33
2019-01-10T10:30:17.969Z,6.90
2019-01-10T10:32:46.931Z,7.33
2019-01-10T10:35:15.831Z,7.23
2019-01-10T10:37:44.611Z,6.17
2019-01-10T10:40:15.660Z,6.28
2019-01-10T10:42:44.530Z,5.90
2019-01-10T10:45:15.209Z,5.92
2019-01-10T10:47:44.300Z,5.90
2019-01-10T10:50:15.435Z,7.42
2019-01-10T10:52:44.297Z,6.40
2019-01-10T10:55:13.311Z,5.87
2019-01-10T10:57:42.099Z,5.28
2019-01-10T11:00:14.553Z,8.93
2019-01-10T11:02:43.581Z,6.62
2019-01-10T11:05:12.457Z,4.90
2019-01-10T11:07:41.453Z,8.43
2019-01-10T11:10:13.175Z,8.55
2019-01-10T11:12:41.835Z,6.83
2019-01-10T11:15:11.376Z,9.78
2019-01-10T11:17:40.380Z,6.42
2019-01-10T11:20:12.339Z,9.35
2019-01-10T11:22:41.032Z,8.75
2019-01-10T11:25:16.048Z,6.17
2019-01-10T11:27:44.601Z,6.17
2019-01-10T11:30:15.900Z,7.25
2019-01-10T11:32:44.673Z,9.55
2019-01-10T11:35:13.341Z,7.03
2019-01-10T11:37:42.267Z,10.63
2019-01-10T11:40:16.260Z,6.60
2019-01-10T11:42:45.024Z,6.35
2019-01-10T11:45:16.185Z,8.43
2019-01-10T11:47:45.312Z,6.42
2019-01-10T11:50:15.817Z,7.45
2019-01-10T11:52:44.691Z,4.97
2019-01-10T11:55:13.718Z,5.92
2019-01-10T11:57:42.613Z,7.70
2019-01-10T12:00:14.644Z,10.58
2019-01-10T12:02:43.653Z,5.62
2019-01-10T12:05:12.454Z,8.05
2019-01-10T12:07:41.215Z,7.85
2019-01-10T12:10:11.679Z,7.87
2019-01-10T12:12:40.352Z,7.97
2019-01-10T12:15:11.892Z,6.12
2019-01-10T12:17:41.008Z,4.50
2019-01-10T12:20:17.771Z,6.85
2019-01-10T12:22:47.148Z,11.57
2019-01-10T12:25:17.587Z,6.47
2019-01-10T12:27:46.357Z,3.60
2019-01-10T12:30:20.729Z,6.13
2019-01-10T12:32:49.479Z,5.35
2019-01-10T12:35:18.160Z,5.85
2019-01-10T12:37:46.964Z,5.40
2019-01-10T12:40:16.253Z,6.95
2019-01-10T12:42:45.052Z,6.90
2019-01-10T12:45:15.943Z,6.53
2019-01-10T12:47:44.566Z,6.45
2019-01-10T12:50:27.603Z,8.20
2019-01-10T12:52:56.495Z,6.60
2019-01-10T12:55:25.273Z,6.70
2019-01-10T12:57:54.371Z,6.10
2019-01-10T13:00:24.576Z,7.23
2019-01-10T13:02:54.923Z,6.33
2019-01-10T13:05:23.706Z,6.28
2019-01-10T13:07:52.600Z,5.47
2019-01-10T13:10:21.475Z,6.25
2019-01-10T13:12:50.471Z,5.20
2019-01-10T13:15:21.418Z,7.35
2019-01-10T13:17:50.211Z,4.78
2019-01-10T13:20:19.266Z,4.30
2019-01-10T13:22:48.074Z,5.10
2019-01-10T13:25:18.658Z,4.58
2019-01-10T13:27:47.802Z,7.33
2019-01-10T13:30:21.312Z,4.03
2019-01-10T13:32:50.092Z,5.10
2019-01-10T13:35:18.791Z,4.62
2019-01-10T13:37:47.423Z,6.08
2019-01-10T13:40:16.589Z,5.12
2019-01-10T13:42:45.440Z,4.22
2019-01-10T13:45:15.251Z,4.72
2019-01-10T13:47:45.454Z,5.00
2019-01-10T13:50:17.525Z,4.60
2019-01-10T13:52:46.552Z,5.43
2019-01-10T13:55:17.153Z,3.55
2019-01-10T13:57:46.045Z,5.22
2019-01-10T14:00:20.497Z,5.55
2019-01-10T14:02:49.417Z,5.90
2019-01-10T14:05:18.172Z,3.58
2019-01-10T14:07:47.152Z,3.92
2019-01-10T14:10:17.684Z,4.35
2019-01-10T14:12:46.565Z,3.92
2019-01-10T14:15:23.855Z,5.60
2019-01-10T14:17:52.552Z,4.03
2019-01-10T14:20:21.147Z,4.03
2019-01-10T14:22:49.678Z,5.15
2019-01-10T14:25:18.377Z,4.97
2019-01-10T14:27:47.039Z,4.70
2019-01-10T14:30:27.957Z,6.00
2019-01-10T14:32:56.622Z,6.50
2019-01-10T14:35:25.531Z,5.22
2019-01-10T14:37:54.429Z,8.28
2019-01-10T14:40:23.212Z,6.08
2019-01-10T14:42:52.108Z,7.03
2019-01-10T14:45:21.062Z,5.80
2019-01-10T14:47:49.793Z,4.10
2019-01-10T14:50:19.901Z,7.15
2019-01-10T14:52:48.916Z,7.33
2019-01-10T14:55:18.190Z,7.58
2019-01-10T14:57:46.732Z,8.23
2019-01-10T15:00:18.213Z,5.90
2019-01-10T15:02:47.032Z,5.83
2019-01-10T15:05:15.713Z,5.45
2019-01-10T15:07:44.599Z,5.37
2019-01-10T15:10:13.266Z,4.00
2019-01-10T15:12:42.100Z,3.87
2019-01-10T15:15:14.354Z,3.17
2019-01-10T15:17:44.161Z,3.72
2019-01-10T15:20:16.000Z,4.67
2019-01-10T15:22:45.079Z,4.80
2019-01-10T15:25:13.977Z,3.25
2019-01-10T15:27:42.667Z,3.90
2019-01-10T15:30:20.571Z,2.83
2019-01-10T15:32:49.252Z,2.65
2019-01-10T15:35:18.328Z,3.10
2019-01-10T15:37:47.152Z,4.40
2019-01-10T15:40:18.810Z,3.25
2019-01-10T15:42:47.591Z,2.27
2019-01-10T15:45:17.391Z,3.22
2019-01-10T15:47:46.184Z,2.37
2019-01-10T15:50:19.072Z,2.85
2019-01-10T15:52:48.064Z,2.60
2019-01-10T15:55:21.144Z,2.35
2019-01-10T15:57:49.833Z,3.52
2019-01-10T16:00:22.683Z,1.93
2019-01-10T16:02:51.606Z,5.62
2019-01-10T16:05:20.192Z,3.20
2019-01-10T16:07:49.084Z,4.10
2019-01-10T16:10:19.209Z,2.70
2019-01-10T16:12:48.155Z,5.17
2019-01-10T16:15:19.355Z,4.30
2019-01-10T16:17:47.917Z,3.73
2019-01-10T16:20:16.608Z,3.00
2019-01-10T16:22:45.611Z,2.27
2019-01-10T16:25:19.674Z,3.72
2019-01-10T16:27:48.677Z,4.20
2019-01-10T16:30:28.348Z,3.80
2019-01-10T16:32:57.240Z,3.90
2019-01-10T16:35:26.141Z,3.20
2019-01-10T16:37:55.248Z,2.50
2019-01-10T16:40:26.251Z,4.17
2019-01-10T16:42:55.361Z,3.77
2019-01-10T16:45:25.972Z,2.90
2019-01-10T16:47:54.994Z,2.47
2019-01-10T16:50:23.788Z,2.62
2019-01-10T16:52:52.360Z,3.50
2019-01-10T16:55:21.221Z,3.30
2019-01-10T16:57:50.073Z,2.92
2019-01-10T17:00:32.464Z,2.33
2019-01-10T17:03:01.350Z,2.63
2019-01-10T17:05:29.918Z,2.33
2019-01-10T17:07:58.815Z,2.90
2019-01-10T17:10:27.490Z,2.27
2019-01-10T17:12:56.409Z,3.00
2019-01-10T17:15:24.944Z,2.62
2019-01-10T17:17:53.747Z,2.67
2019-01-10T17:20:24.699Z,3.33
2019-01-10T17:22:53.590Z,4.42
2019-01-10T17:25:22.158Z,3.92
2019-01-10T17:27:51.060Z,2.60
2019-01-10T17:30:22.350Z,2.25
2019-01-10T17:32:50.979Z,2.45
2019-01-10T17:35:22.410Z,3.22
2019-01-10T17:37:51.310Z,3.05
2019-01-10T17:40:21.848Z,3.30
2019-01-10T17:42:51.065Z,3.35
2019-01-10T17:45:22.812Z,3.55
2019-01-10T17:47:51.606Z,3.33
2019-01-10T17:50:20.505Z,6.58
2019-01-10T17:52:49.503Z,4.70
2019-01-10T17:55:18.075Z,3.37
2019-01-10T17:57:46.853Z,3.22
2019-01-10T18:00:21.485Z,3.50
2019-01-10T18:02:50.096Z,3.40
2019-01-10T18:05:18.844Z,4.17
2019-01-10T18:07:47.744Z,3.95
2019-01-10T18:10:23.274Z,3.62
2019-01-10T18:12:51.907Z,3.42
2019-01-10T18:15:23.288Z,2.70
2019-01-10T18:17:52.006Z,3.77
2019-01-10T18:20:32.450Z,3.15
2019-01-10T18:23:00.947Z,2.85
2019-01-10T18:25:29.649Z,3.05
2019-01-10T18:27:58.531Z,3.65
2019-01-10T18:30:27.722Z,1.82
2019-01-10T18:32:56.529Z,2.20
2019-01-10T18:35:26.350Z,2.17
2019-01-10T18:37:55.421Z,2.70
2019-01-10T18:40:24.281Z,4.62
2019-01-10T18:42:53.020Z,3.13
2019-01-10T18:45:29.721Z,3.58
2019-01-10T18:48:00.225Z,3.55
2019-01-10T18:50:29.181Z,4.17
2019-01-10T18:52:57.890Z,8.03
2019-01-10T18:55:26.783Z,11.05
2019-01-10T18:57:55.557Z,3.20
2019-01-10T19:00:26.667Z,4.65
2019-01-10T19:02:55.900Z,4.62
2019-01-10T19:05:24.443Z,5.15
2019-01-10T19:08:15.035Z,3.75
2019-01-10T19:10:43.967Z,3.65
2019-01-10T19:13:12.746Z,3.42
2019-01-10T19:15:41.726Z,4.85
2019-01-10T19:18:10.463Z,2.92
2019-01-10T19:20:39.186Z,4.10
2019-01-10T19:23:07.810Z,3.45
2019-01-10T19:25:36.337Z,4.25
2019-01-10T19:28:05.201Z,5.33
2019-01-10T19:30:34.169Z,4.08
2019-01-10T19:33:02.874Z,6.65
2019-01-10T19:35:31.640Z,3.92
2019-01-10T19:38:00.533Z,4.30
2019-01-10T19:40:29.742Z,5.12
2019-01-10T19:42:58.210Z,4.30
2019-01-10T19:45:27.020Z,4.50
2019-01-10T19:47:55.706Z,4.47
2019-01-10T19:50:25.712Z,3.98
2019-01-10T19:52:54.706Z,5.75
2019-01-10T19:55:23.464Z,9.23
2019-01-10T19:57:52.499Z,6.42
2019-01-10T20:00:27.217Z,5.25
2019-01-10T20:02:55.894Z,4.80
2019-01-10T20:05:24.773Z,5.33
2019-01-10T20:07:53.370Z,5.67
2019-01-10T20:10:22.174Z,5.22
2019-01-10T20:12:51.245Z,5.50
2019-01-10T20:15:21.278Z,6.78
2019-01-10T20:17:50.163Z,6.53
2019-01-10T20:20:25.286Z,4.58
2019-01-10T20:22:54.287Z,5.60
2019-01-10T20:25:23.688Z,3.83
2019-01-10T20:27:52.600Z,4.95
2019-01-10T20:30:21.584Z,5.87
2019-01-10T20:32:50.367Z,5.55
2019-01-10T20:35:19.262Z,6.83
2019-01-10T20:37:48.169Z,5.30
2019-01-10T20:40:18.445Z,4.83
2019-01-10T20:42:47.050Z,6.30
2019-01-10T20:45:15.934Z,4.53
2019-01-10T20:47:44.711Z,5.65
2019-01-10T20:50:17.090Z,6.05
2019-01-10T20:52:45.571Z,6.08
2019-01-10T20:55:15.751Z,7.20
2019-01-10T20:57:44.592Z,8.40
2019-01-10T21:00:21.363Z,8.43
2019-01-10T21:02:50.633Z,6.17
2019-01-10T21:05:19.313Z,5.93
2019-01-10T21:07:49.464Z,5.20
2019-01-10T21:10:22.676Z,6.60
2019-01-10T21:12:51.667Z,7.62
2019-01-10T21:15:22.597Z,7.60
2019-01-10T21:17:51.277Z,6.97
2019-01-10T21:20:20.176Z,5.17
2019-01-10T21:22:49.776Z,6.20
2019-01-10T21:25:19.057Z,7.10
2019-01-10T21:27:47.857Z,6.55
2019-01-10T21:30:19.207Z,6.55
2019-01-10T21:32:48.098Z,7.72
2019-01-10T21:35:16.997Z,4.77
2019-01-10T21:37:45.567Z,5.62
2019-01-10T21:40:17.228Z,8.43
2019-01-10T21:42:45.923Z,6.78
2019-01-10T21:45:17.289Z,4.00
2019-01-10T21:47:46.262Z,4.60
2019-01-10T21:50:20.129Z,5.13
2019-01-10T21:52:48.862Z,5.75
2019-01-10T21:55:17.746Z,6.70
2019-01-10T21:57:46.421Z,7.70
2019-01-10T22:00:18.160Z,6.60
2019-01-10T22:02:46.970Z,8.33
2019-01-10T22:05:15.665Z,7.25
2019-01-10T22:07:44.452Z,10.17
2019-01-10T22:10:13.443Z,5.72
2019-01-10T22:12:42.179Z,9.05
2019-01-10T22:15:13.222Z,9.05
2019-01-10T22:17:42.162Z,5.65
2019-01-10T22:20:16.472Z,7.95
2019-01-10T22:22:45.277Z,10.98
2019-01-10T22:25:14.254Z,11.25
2019-01-10T22:27:43.057Z,6.90
2019-01-10T22:30:14.607Z,8.38
2019-01-10T22:32:43.598Z,10.00
2019-01-10T22:35:14.816Z,10.23
2019-01-10T22:37:43.320Z,9.28
2019-01-10T22:40:14.614Z,10.20
2019-01-10T22:42:43.118Z,14.00
2019-01-10T22:45:12.343Z,9.90
2019-01-10T22:47:41.245Z,12.90
2019-01-10T22:50:12.891Z,9.97
2019-01-10T22:52:41.799Z,13.30
2019-01-10T22:55:12.166Z,12.65
2019-01-10T22:57:41.038Z,14.47
2019-01-10T23:00:27.046Z,12.47
2019-01-10T23:03:04.478Z,13.10
2019-01-10T23:05:33.490Z,12.10
2019-01-10T23:08:02.165Z,13.43
2019-01-10T23:10:30.630Z,14.05
2019-01-10T23:12:59.432Z,10.82
2019-01-10T23:15:29.755Z,11.90
2019-01-10T23:17:58.539Z,16.13
2019-01-10T23:20:27.728Z,12.00
2019-01-10T23:23:05.651Z,13.90
2019-01-10T23:25:35.033Z,13.50
2019-01-10T23:28:03.621Z,16.23
2019-01-10T23:30:50.443Z,15.10
2019-01-10T23:33:19.742Z,14.15
2019-01-10T23:35:51.262Z,14.40
2019-01-10T23:38:23.542Z,18.50
2019-01-10T23:40:53.353Z,19.30
2019-01-10T23:43:22.262Z,19.20
2019-01-10T23:45:51.157Z,14.07
2019-01-10T23:48:20.047Z,19.23
2019-01-10T23:50:48.825Z,16.80
2019-01-10T23:53:17.616Z,15.07
2019-01-10T23:55:46.407Z,21.77
2019-01-10T23:58:15.084Z,18.25
